sensor_id;sensor_type;location;lat;lon;timestamp;P1;durP1;ratioP1;P2;durP2;ratioP2
40503;SDS011;42292;49.048;8.374;2022-07-01T00:01:28;0.98;;;0.47;;
40503;SDS011;42292;49.048;8.374;2022-07-01T00:03:56;1.60;;;0.40;;
40503;SDS011;42292;49.048;8.374;2022-07-01T00:06:24;1.55;;;0.80;;
40503;SDS011;42292;49.048;8.374;2022-07-01T00:08:50;1.85;;;0.73;;
40503;SDS011;42292;49.048;8.374;2022-07-01T00:11:15;1.63;;;0.57;;
40503;SDS011;42292;49.048;8.374;2022-07-01T00:13:41;1.90;;;0.40;;
40503;SDS011;42292;49.048;8.374;2022-07-01T00:16:09;1.70;;;0.50;;
40503;SDS011;42292;49.048;8.374;2022-07-01T00:18:39;1.05;;;0.60;;
40503;SDS011;42292;49.048;8.374;2022-07-01T00:21:05;1.30;;;0.40;;
40503;SDS011;42292;49.048;8.374;2022-07-01T00:23:31;1.50;;;0.60;;
40503;SDS011;42292;49.048;8.374;2022-07-01T00:26:00;1.50;;;0.52;;
40503;SDS011;42292;49.048;8.374;2022-07-01T00:28:25;1.67;;;0.60;;
40503;SDS011;42292;49.048;8.374;2022-07-01T00:30:51;1.50;;;0.40;;
40503;SDS011;42292;49.048;8.374;2022-07-01T00:33:17;1.40;;;0.50;;
40503;SDS011;42292;49.048;8.374;2022-07-01T00:35:43;2.00;;;0.60;;
40503;SDS011;42292;49.048;8.374;2022-07-01T00:38:09;1.65;;;0.50;;
40503;SDS011;42292;49.048;8.374;2022-07-01T00:40:36;1.40;;;0.60;;
40503;SDS011;42292;49.048;8.374;2022-07-01T00:43:04;0.80;;;0.40;;
40503;SDS011;42292;49.048;8.374;2022-07-01T00:45:32;0.90;;;0.40;;
40503;SDS011;42292;49.048;8.374;2022-07-01T00:48:00;1.30;;;0.40;;
40503;SDS011;42292;49.048;8.374;2022-07-01T00:50:26;2.60;;;0.50;;
40503;SDS011;42292;49.048;8.374;2022-07-01T00:52:52;0.70;;;0.50;;
40503;SDS011;42292;49.048;8.374;2022-07-01T00:55:20;1.83;;;0.60;;
40503;SDS011;42292;49.048;8.374;2022-07-01T00:57:45;1.08;;;0.50;;
40503;SDS011;42292;49.048;8.374;2022-07-01T01:00:16;1.55;;;0.45;;
40503;SDS011;42292;49.048;8.374;2022-07-01T01:02:49;1.83;;;0.60;;
40503;SDS011;42292;49.048;8.374;2022-07-01T01:05:15;2.42;;;0.50;;
40503;SDS011;42292;49.048;8.374;2022-07-01T01:07:42;1.35;;;0.43;;
40503;SDS011;42292;49.048;8.374;2022-07-01T01:10:14;0.73;;;0.55;;
40503;SDS011;42292;49.048;8.374;2022-07-01T01:12:42;2.00;;;0.52;;
40503;SDS011;42292;49.048;8.374;2022-07-01T01:15:08;1.25;;;0.40;;
40503;SDS011;42292;49.048;8.374;2022-07-01T01:17:35;2.97;;;0.60;;
40503;SDS011;42292;49.048;8.374;2022-07-01T01:20:02;2.00;;;0.50;;
40503;SDS011;42292;49.048;8.374;2022-07-01T01:22:31;1.70;;;0.50;;
40503;SDS011;42292;49.048;8.374;2022-07-01T01:24:56;1.60;;;0.50;;
40503;SDS011;42292;49.048;8.374;2022-07-01T01:27:22;2.75;;;0.65;;
40503;SDS011;42292;49.048;8.374;2022-07-01T01:29:50;0.87;;;0.50;;
40503;SDS011;42292;49.048;8.374;2022-07-01T01:32:19;1.83;;;0.60;;
40503;SDS011;42292;49.048;8.374;2022-07-01T01:34:44;0.90;;;0.50;;
40503;SDS011;42292;49.048;8.374;2022-07-01T01:37:10;2.50;;;0.77;;
40503;SDS011;42292;49.048;8.374;2022-07-01T01:39:35;3.13;;;0.60;;
40503;SDS011;42292;49.048;8.374;2022-07-01T01:42:04;1.50;;;0.50;;
40503;SDS011;42292;49.048;8.374;2022-07-01T01:44:31;1.90;;;0.57;;
40503;SDS011;42292;49.048;8.374;2022-07-01T01:47:02;1.15;;;0.50;;
40503;SDS011;42292;49.048;8.374;2022-07-01T01:49:27;1.03;;;0.50;;
40503;SDS011;42292;49.048;8.374;2022-07-01T01:51:58;0.82;;;0.40;;
40503;SDS011;42292;49.048;8.374;2022-07-01T01:54:25;1.23;;;0.70;;
40503;SDS011;42292;49.048;8.374;2022-07-01T01:56:51;2.15;;;0.50;;
40503;SDS011;42292;49.048;8.374;2022-07-01T01:59:18;3.05;;;0.57;;
40503;SDS011;42292;49.048;8.374;2022-07-01T02:01:47;1.23;;;0.60;;
40503;SDS011;42292;49.048;8.374;2022-07-01T02:04:12;1.25;;;0.50;;
40503;SDS011;42292;49.048;8.374;2022-07-01T02:06:38;1.90;;;0.70;;
40503;SDS011;42292;49.048;8.374;2022-07-01T02:09:06;1.67;;;0.77;;
40503;SDS011;42292;49.048;8.374;2022-07-01T02:11:32;1.70;;;0.93;;
40503;SDS011;42292;49.048;8.374;2022-07-01T02:13:57;1.80;;;0.60;;
40503;SDS011;42292;49.048;8.374;2022-07-01T02:16:26;4.05;;;0.73;;
40503;SDS011;42292;49.048;8.374;2022-07-01T02:18:52;2.55;;;1.00;;
40503;SDS011;42292;49.048;8.374;2022-07-01T02:21:17;2.30;;;0.65;;
40503;SDS011;42292;49.048;8.374;2022-07-01T02:23:43;1.10;;;0.68;;
40503;SDS011;42292;49.048;8.374;2022-07-01T02:26:14;2.35;;;0.70;;
40503;SDS011;42292;49.048;8.374;2022-07-01T02:28:39;1.13;;;0.63;;
40503;SDS011;42292;49.048;8.374;2022-07-01T02:31:05;1.25;;;0.63;;
40503;SDS011;42292;49.048;8.374;2022-07-01T02:33:30;1.83;;;0.60;;
40503;SDS011;42292;49.048;8.374;2022-07-01T02:35:58;2.08;;;0.65;;
40503;SDS011;42292;49.048;8.374;2022-07-01T02:38:24;2.40;;;0.60;;
40503;SDS011;42292;49.048;8.374;2022-07-01T02:40:50;2.13;;;0.80;;
40503;SDS011;42292;49.048;8.374;2022-07-01T02:43:17;3.95;;;0.77;;
40503;SDS011;42292;49.048;8.374;2022-07-01T02:45:43;1.02;;;0.90;;
40503;SDS011;42292;49.048;8.374;2022-07-01T02:48:09;1.67;;;0.80;;
40503;SDS011;42292;49.048;8.374;2022-07-01T02:50:36;2.33;;;1.00;;
40503;SDS011;42292;49.048;8.374;2022-07-01T02:53:02;1.20;;;0.90;;
40503;SDS011;42292;49.048;8.374;2022-07-01T02:55:33;3.60;;;1.00;;
40503;SDS011;42292;49.048;8.374;2022-07-01T02:58:03;2.33;;;0.88;;
40503;SDS011;42292;49.048;8.374;2022-07-01T03:00:29;1.58;;;0.73;;
40503;SDS011;42292;49.048;8.374;2022-07-01T03:02:55;2.00;;;0.80;;
40503;SDS011;42292;49.048;8.374;2022-07-01T03:05:20;2.47;;;0.97;;
40503;SDS011;42292;49.048;8.374;2022-07-01T03:07:48;1.93;;;0.80;;
40503;SDS011;42292;49.048;8.374;2022-07-01T03:10:14;2.70;;;0.90;;
40503;SDS011;42292;49.048;8.374;2022-07-01T03:12:40;2.45;;;0.80;;
40503;SDS011;42292;49.048;8.374;2022-07-01T03:17:41;3.30;;;1.30;;
40503;SDS011;42292;49.048;8.374;2022-07-01T03:20:09;2.40;;;1.05;;
40503;SDS011;42292;49.048;8.374;2022-07-01T03:22:37;2.42;;;1.08;;
40503;SDS011;42292;49.048;8.374;2022-07-01T03:25:04;2.28;;;1.10;;
40503;SDS011;42292;49.048;8.374;2022-07-01T03:27:31;1.60;;;1.40;;
40503;SDS011;42292;49.048;8.374;2022-07-01T03:29:59;1.60;;;1.42;;
40503;SDS011;42292;49.048;8.374;2022-07-01T03:32:29;2.30;;;1.23;;
40503;SDS011;42292;49.048;8.374;2022-07-01T03:35:01;3.72;;;1.50;;
40503;SDS011;42292;49.048;8.374;2022-07-01T03:37:47;1.95;;;1.42;;
40503;SDS011;42292;49.048;8.374;2022-07-01T03:40:15;2.50;;;1.50;;
40503;SDS011;42292;49.048;8.374;2022-07-01T03:42:43;2.50;;;1.57;;
40503;SDS011;42292;49.048;8.374;2022-07-01T03:45:13;1.93;;;1.70;;
40503;SDS011;42292;49.048;8.374;2022-07-01T03:47:44;2.75;;;1.70;;
40503;SDS011;42292;49.048;8.374;2022-07-01T03:50:11;2.87;;;1.50;;
40503;SDS011;42292;49.048;8.374;2022-07-01T03:52:39;1.90;;;1.60;;
40503;SDS011;42292;49.048;8.374;2022-07-01T03:55:07;2.75;;;1.40;;
40503;SDS011;42292;49.048;8.374;2022-07-01T03:57:33;3.20;;;1.80;;
40503;SDS011;42292;49.048;8.374;2022-07-01T03:59:59;2.45;;;1.50;;
40503;SDS011;42292;49.048;8.374;2022-07-01T04:02:25;4.45;;;1.70;;
40503;SDS011;42292;49.048;8.374;2022-07-01T04:04:52;2.20;;;1.30;;
40503;SDS011;42292;49.048;8.374;2022-07-01T04:07:20;1.88;;;1.20;;
40503;SDS011;42292;49.048;8.374;2022-07-01T04:09:46;1.50;;;1.03;;
40503;SDS011;42292;49.048;8.374;2022-07-01T04:12:11;3.60;;;1.40;;
40503;SDS011;42292;49.048;8.374;2022-07-01T04:14:37;2.05;;;0.98;;
40503;SDS011;42292;49.048;8.374;2022-07-01T04:17:03;2.30;;;1.10;;
40503;SDS011;42292;49.048;8.374;2022-07-01T04:19:29;2.33;;;0.90;;
40503;SDS011;42292;49.048;8.374;2022-07-01T04:21:57;1.98;;;1.00;;
40503;SDS011;42292;49.048;8.374;2022-07-01T04:24:41;2.17;;;1.00;;
40503;SDS011;42292;49.048;8.374;2022-07-01T04:27:07;2.83;;;1.00;;
40503;SDS011;42292;49.048;8.374;2022-07-01T04:29:35;2.17;;;0.90;;
40503;SDS011;42292;49.048;8.374;2022-07-01T04:32:00;2.60;;;0.90;;
40503;SDS011;42292;49.048;8.374;2022-07-01T04:34:28;2.10;;;1.20;;
40503;SDS011;42292;49.048;8.374;2022-07-01T04:36:54;2.65;;;0.98;;
40503;SDS011;42292;49.048;8.374;2022-07-01T04:39:21;0.85;;;0.80;;
40503;SDS011;42292;49.048;8.374;2022-07-01T04:41:46;2.08;;;0.85;;
40503;SDS011;42292;49.048;8.374;2022-07-01T04:44:24;1.38;;;0.80;;
40503;SDS011;42292;49.048;8.374;2022-07-01T04:46:50;3.40;;;0.97;;
40503;SDS011;42292;49.048;8.374;2022-07-01T04:49:21;2.03;;;0.80;;
40503;SDS011;42292;49.048;8.374;2022-07-01T04:51:49;2.50;;;0.73;;
40503;SDS011;42292;49.048;8.374;2022-07-01T04:54:17;2.55;;;0.80;;
40503;SDS011;42292;49.048;8.374;2022-07-01T04:56:43;2.33;;;0.77;;
40503;SDS011;42292;49.048;8.374;2022-07-01T04:59:09;4.60;;;1.17;;
40503;SDS011;42292;49.048;8.374;2022-07-01T05:01:41;1.88;;;0.60;;
40503;SDS011;42292;49.048;8.374;2022-07-01T05:04:07;1.88;;;0.70;;
40503;SDS011;42292;49.048;8.374;2022-07-01T05:06:32;2.75;;;0.77;;
40503;SDS011;42292;49.048;8.374;2022-07-01T05:08:59;2.40;;;0.80;;
40503;SDS011;42292;49.048;8.374;2022-07-01T05:11:28;1.70;;;0.80;;
40503;SDS011;42292;49.048;8.374;2022-07-01T05:13:53;1.30;;;0.50;;
40503;SDS011;42292;49.048;8.374;2022-07-01T05:16:21;2.15;;;0.80;;
40503;SDS011;42292;49.048;8.374;2022-07-01T05:18:49;1.92;;;0.90;;
40503;SDS011;42292;49.048;8.374;2022-07-01T05:21:33;3.22;;;0.90;;
40503;SDS011;42292;49.048;8.374;2022-07-01T05:24:17;1.25;;;0.68;;
40503;SDS011;42292;49.048;8.374;2022-07-01T05:26:42;2.53;;;0.70;;
40503;SDS011;42292;49.048;8.374;2022-07-01T05:29:08;2.47;;;0.70;;
40503;SDS011;42292;49.048;8.374;2022-07-01T05:31:36;0.85;;;0.70;;
40503;SDS011;42292;49.048;8.374;2022-07-01T05:34:01;3.17;;;0.80;;
40503;SDS011;42292;49.048;8.374;2022-07-01T05:36:27;3.50;;;0.90;;
40503;SDS011;42292;49.048;8.374;2022-07-01T05:38:53;3.78;;;0.85;;
40503;SDS011;42292;49.048;8.374;2022-07-01T05:41:21;3.35;;;1.00;;
40503;SDS011;42292;49.048;8.374;2022-07-01T05:43:47;3.22;;;1.10;;
40503;SDS011;42292;49.048;8.374;2022-07-01T05:46:12;1.52;;;0.80;;
40503;SDS011;42292;49.048;8.374;2022-07-01T05:48:40;1.48;;;0.73;;
40503;SDS011;42292;49.048;8.374;2022-07-01T05:51:08;1.37;;;0.80;;
40503;SDS011;42292;49.048;8.374;2022-07-01T05:53:36;2.88;;;1.05;;
40503;SDS011;42292;49.048;8.374;2022-07-01T05:56:01;1.23;;;0.70;;
40503;SDS011;42292;49.048;8.374;2022-07-01T05:58:29;4.57;;;1.08;;
40503;SDS011;42292;49.048;8.374;2022-07-01T06:00:55;2.10;;;0.87;;
40503;SDS011;42292;49.048;8.374;2022-07-01T06:03:23;1.77;;;0.90;;
40503;SDS011;42292;49.048;8.374;2022-07-01T06:05:49;2.58;;;1.00;;
40503;SDS011;42292;49.048;8.374;2022-07-01T06:08:17;4.13;;;1.23;;
40503;SDS011;42292;49.048;8.374;2022-07-01T06:10:42;2.45;;;1.13;;
40503;SDS011;42292;49.048;8.374;2022-07-01T06:13:08;2.83;;;1.00;;
40503;SDS011;42292;49.048;8.374;2022-07-01T06:15:35;3.40;;;1.17;;
40503;SDS011;42292;49.048;8.374;2022-07-01T06:18:01;2.47;;;1.33;;
40503;SDS011;42292;49.048;8.374;2022-07-01T06:20:26;1.38;;;1.00;;
40503;SDS011;42292;49.048;8.374;2022-07-01T06:22:55;1.80;;;1.13;;
40503;SDS011;42292;49.048;8.374;2022-07-01T06:25:22;1.90;;;1.33;;
40503;SDS011;42292;49.048;8.374;2022-07-01T06:27:47;2.97;;;1.57;;
40503;SDS011;42292;49.048;8.374;2022-07-01T06:30:13;2.57;;;1.43;;
40503;SDS011;42292;49.048;8.374;2022-07-01T06:32:39;3.20;;;1.48;;
40503;SDS011;42292;49.048;8.374;2022-07-01T06:35:05;2.10;;;1.65;;
40503;SDS011;42292;49.048;8.374;2022-07-01T06:37:32;2.97;;;1.77;;
40503;SDS011;42292;49.048;8.374;2022-07-01T06:39:59;2.72;;;1.90;;
40503;SDS011;42292;49.048;8.374;2022-07-01T06:42:27;2.10;;;1.85;;
40503;SDS011;42292;49.048;8.374;2022-07-01T06:44:53;3.77;;;2.00;;
40503;SDS011;42292;49.048;8.374;2022-07-01T06:47:21;1.77;;;1.60;;
40503;SDS011;42292;49.048;8.374;2022-07-01T06:49:46;3.10;;;1.95;;
40503;SDS011;42292;49.048;8.374;2022-07-01T06:52:13;4.03;;;1.87;;
40503;SDS011;42292;49.048;8.374;2022-07-01T06:54:38;5.05;;;2.40;;
40503;SDS011;42292;49.048;8.374;2022-07-01T06:57:04;5.03;;;2.60;;
40503;SDS011;42292;49.048;8.374;2022-07-01T06:59:30;6.47;;;2.65;;
40503;SDS011;42292;49.048;8.374;2022-07-01T07:01:56;4.05;;;2.40;;
40503;SDS011;42292;49.048;8.374;2022-07-01T07:04:26;5.05;;;2.50;;
40503;SDS011;42292;49.048;8.374;2022-07-01T07:06:54;6.28;;;2.55;;
40503;SDS011;42292;49.048;8.374;2022-07-01T07:09:24;5.67;;;2.83;;
40503;SDS011;42292;49.048;8.374;2022-07-01T07:11:52;3.90;;;2.97;;
40503;SDS011;42292;49.048;8.374;2022-07-01T07:14:18;2.85;;;2.53;;
40503;SDS011;42292;49.048;8.374;2022-07-01T07:16:43;4.00;;;3.00;;
40503;SDS011;42292;49.048;8.374;2022-07-01T07:19:09;6.17;;;3.13;;
40503;SDS011;42292;49.048;8.374;2022-07-01T07:21:36;6.68;;;3.20;;
40503;SDS011;42292;49.048;8.374;2022-07-01T07:24:01;6.50;;;3.57;;
40503;SDS011;42292;49.048;8.374;2022-07-01T07:26:27;3.20;;;2.50;;
40503;SDS011;42292;49.048;8.374;2022-07-01T07:28:52;5.25;;;2.97;;
40503;SDS011;42292;49.048;8.374;2022-07-01T07:31:18;4.05;;;2.80;;
40503;SDS011;42292;49.048;8.374;2022-07-01T07:33:44;3.75;;;2.58;;
40503;SDS011;42292;49.048;8.374;2022-07-01T07:36:12;5.10;;;2.90;;
40503;SDS011;42292;49.048;8.374;2022-07-01T07:38:38;3.70;;;2.67;;
40503;SDS011;42292;49.048;8.374;2022-07-01T07:41:04;4.97;;;2.95;;
40503;SDS011;42292;49.048;8.374;2022-07-01T07:43:32;4.63;;;3.20;;
40503;SDS011;42292;49.048;8.374;2022-07-01T07:45:57;3.75;;;2.70;;
40503;SDS011;42292;49.048;8.374;2022-07-01T07:48:23;4.00;;;3.00;;
40503;SDS011;42292;49.048;8.374;2022-07-01T07:50:49;4.60;;;3.00;;
40503;SDS011;42292;49.048;8.374;2022-07-01T07:53:14;5.93;;;3.00;;
40503;SDS011;42292;49.048;8.374;2022-07-01T07:55:40;5.60;;;2.90;;
40503;SDS011;42292;49.048;8.374;2022-07-01T07:58:05;4.80;;;2.70;;
40503;SDS011;42292;49.048;8.374;2022-07-01T08:00:31;4.30;;;2.70;;
40503;SDS011;42292;49.048;8.374;2022-07-01T08:03:00;4.55;;;2.85;;
40503;SDS011;42292;49.048;8.374;2022-07-01T08:05:28;4.68;;;3.42;;
40503;SDS011;42292;49.048;8.374;2022-07-01T08:07:55;4.60;;;3.20;;
40503;SDS011;42292;49.048;8.374;2022-07-01T08:10:23;5.40;;;3.30;;
40503;SDS011;42292;49.048;8.374;2022-07-01T08:12:49;5.07;;;2.80;;
40503;SDS011;42292;49.048;8.374;2022-07-01T08:15:16;5.35;;;2.80;;
40503;SDS011;42292;49.048;8.374;2022-07-01T08:17:41;3.63;;;2.30;;
40503;SDS011;42292;49.048;8.374;2022-07-01T08:20:07;6.13;;;2.85;;
40503;SDS011;42292;49.048;8.374;2022-07-01T08:22:33;4.85;;;2.60;;
40503;SDS011;42292;49.048;8.374;2022-07-01T08:25:01;3.70;;;2.45;;
40503;SDS011;42292;49.048;8.374;2022-07-01T08:27:28;5.50;;;2.70;;
40503;SDS011;42292;49.048;8.374;2022-07-01T08:29:56;4.13;;;2.17;;
40503;SDS011;42292;49.048;8.374;2022-07-01T08:32:22;5.03;;;2.13;;
40503;SDS011;42292;49.048;8.374;2022-07-01T08:34:50;3.78;;;2.15;;
40503;SDS011;42292;49.048;8.374;2022-07-01T08:37:16;5.90;;;2.10;;
40503;SDS011;42292;49.048;8.374;2022-07-01T08:39:44;5.00;;;2.53;;
40503;SDS011;42292;49.048;8.374;2022-07-01T08:42:09;3.22;;;2.00;;
40503;SDS011;42292;49.048;8.374;2022-07-01T08:44:35;3.38;;;1.90;;
40503;SDS011;42292;49.048;8.374;2022-07-01T08:47:01;4.35;;;2.05;;
40503;SDS011;42292;49.048;8.374;2022-07-01T08:49:27;4.65;;;1.80;;
40503;SDS011;42292;49.048;8.374;2022-07-01T08:51:53;8.05;;;2.20;;
40503;SDS011;42292;49.048;8.374;2022-07-01T08:54:19;3.40;;;1.80;;
40503;SDS011;42292;49.048;8.374;2022-07-01T08:56:44;8.40;;;2.60;;
40503;SDS011;42292;49.048;8.374;2022-07-01T08:59:21;4.40;;;1.63;;
40503;SDS011;42292;49.048;8.374;2022-07-01T09:01:56;3.87;;;1.73;;
40503;SDS011;42292;49.048;8.374;2022-07-01T09:04:23;3.07;;;1.70;;
40503;SDS011;42292;49.048;8.374;2022-07-01T09:06:49;3.90;;;1.50;;
40503;SDS011;42292;49.048;8.374;2022-07-01T09:09:16;4.75;;;1.65;;
40503;SDS011;42292;49.048;8.374;2022-07-01T09:11:51;2.20;;;1.17;;
40503;SDS011;42292;49.048;8.374;2022-07-01T09:14:24;2.65;;;1.60;;
40503;SDS011;42292;49.048;8.374;2022-07-01T09:16:51;2.83;;;1.50;;
40503;SDS011;42292;49.048;8.374;2022-07-01T09:19:20;2.85;;;1.60;;
40503;SDS011;42292;49.048;8.374;2022-07-01T09:21:48;9.93;;;2.30;;
40503;SDS011;42292;49.048;8.374;2022-07-01T09:27:01;4.00;;;1.13;;
40503;SDS011;42292;49.048;8.374;2022-07-01T09:29:42;2.30;;;1.00;;
40503;SDS011;42292;49.048;8.374;2022-07-01T09:32:13;2.58;;;1.10;;
40503;SDS011;42292;49.048;8.374;2022-07-01T09:34:43;4.13;;;0.98;;
40503;SDS011;42292;49.048;8.374;2022-07-01T09:37:16;2.20;;;1.13;;
40503;SDS011;42292;49.048;8.374;2022-07-01T09:42:09;3.30;;;1.15;;
40503;SDS011;42292;49.048;8.374;2022-07-01T09:44:36;3.63;;;1.10;;
40503;SDS011;42292;49.048;8.374;2022-07-01T09:47:17;2.30;;;0.80;;
40503;SDS011;42292;49.048;8.374;2022-07-01T09:49:42;1.40;;;1.03;;
40503;SDS011;42292;49.048;8.374;2022-07-01T09:52:08;2.22;;;1.08;;
40503;SDS011;42292;49.048;8.374;2022-07-01T09:54:34;2.67;;;1.40;;
40503;SDS011;42292;49.048;8.374;2022-07-01T09:57:03;2.13;;;1.10;;
40503;SDS011;42292;49.048;8.374;2022-07-01T09:59:29;1.77;;;0.90;;
40503;SDS011;42292;49.048;8.374;2022-07-01T10:01:55;1.70;;;0.90;;
40503;SDS011;42292;49.048;8.374;2022-07-01T10:04:25;1.80;;;0.93;;
40503;SDS011;42292;49.048;8.374;2022-07-01T10:06:56;3.35;;;0.80;;
40503;SDS011;42292;49.048;8.374;2022-07-01T10:09:52;3.35;;;0.90;;
40503;SDS011;42292;49.048;8.374;2022-07-01T10:12:38;2.25;;;0.95;;
40503;SDS011;42292;49.048;8.374;2022-07-01T10:15:07;1.88;;;0.90;;
40503;SDS011;42292;49.048;8.374;2022-07-01T10:17:36;2.10;;;1.00;;
40503;SDS011;42292;49.048;8.374;2022-07-01T10:20:10;2.40;;;0.95;;
40503;SDS011;42292;49.048;8.374;2022-07-01T10:22:40;1.90;;;0.98;;
40503;SDS011;42292;49.048;8.374;2022-07-01T10:30:51;2.40;;;0.90;;
40503;SDS011;42292;49.048;8.374;2022-07-01T10:41:31;3.70;;;0.95;;
40503;SDS011;42292;49.048;8.374;2022-07-01T10:44:02;2.20;;;0.82;;
40503;SDS011;42292;49.048;8.374;2022-07-01T10:46:42;2.30;;;0.90;;
40503;SDS011;42292;49.048;8.374;2022-07-01T10:49:12;2.28;;;1.08;;
40503;SDS011;42292;49.048;8.374;2022-07-01T10:54:11;2.10;;;0.80;;
40503;SDS011;42292;49.048;8.374;2022-07-01T10:56:39;2.37;;;0.97;;
40503;SDS011;42292;49.048;8.374;2022-07-01T10:59:05;2.63;;;0.90;;
40503;SDS011;42292;49.048;8.374;2022-07-01T11:01:34;1.73;;;0.77;;
40503;SDS011;42292;49.048;8.374;2022-07-01T11:03:59;2.08;;;0.93;;
40503;SDS011;42292;49.048;8.374;2022-07-01T11:06:29;1.50;;;0.70;;
40503;SDS011;42292;49.048;8.374;2022-07-01T11:08:56;1.92;;;0.80;;
40503;SDS011;42292;49.048;8.374;2022-07-01T11:11:23;1.70;;;0.70;;
40503;SDS011;42292;49.048;8.374;2022-07-01T11:13:49;1.50;;;0.70;;
40503;SDS011;42292;49.048;8.374;2022-07-01T11:16:17;2.07;;;0.93;;
40503;SDS011;42292;49.048;8.374;2022-07-01T11:18:43;2.00;;;0.60;;
40503;SDS011;42292;49.048;8.374;2022-07-01T11:21:11;0.90;;;0.60;;
40503;SDS011;42292;49.048;8.374;2022-07-01T11:23:39;2.00;;;0.90;;
40503;SDS011;42292;49.048;8.374;2022-07-01T11:26:05;2.90;;;1.10;;
40503;SDS011;42292;49.048;8.374;2022-07-01T11:28:30;1.92;;;0.80;;
40503;SDS011;42292;49.048;8.374;2022-07-01T11:31:04;3.35;;;1.10;;
40503;SDS011;42292;49.048;8.374;2022-07-01T11:33:30;2.33;;;0.80;;
40503;SDS011;42292;49.048;8.374;2022-07-01T11:35:55;2.35;;;0.70;;
40503;SDS011;42292;49.048;8.374;2022-07-01T11:38:45;1.50;;;0.90;;
40503;SDS011;42292;49.048;8.374;2022-07-01T11:41:29;2.38;;;0.85;;
40503;SDS011;42292;49.048;8.374;2022-07-01T11:43:55;1.53;;;0.70;;
40503;SDS011;42292;49.048;8.374;2022-07-01T11:46:20;0.93;;;0.50;;
40503;SDS011;42292;49.048;8.374;2022-07-01T11:48:51;2.50;;;1.00;;
40503;SDS011;42292;49.048;8.374;2022-07-01T11:51:19;1.58;;;0.70;;
40503;SDS011;42292;49.048;8.374;2022-07-01T11:53:49;2.07;;;0.70;;
40503;SDS011;42292;49.048;8.374;2022-07-01T11:56:34;1.45;;;0.90;;
40503;SDS011;42292;49.048;8.374;2022-07-01T11:59:05;0.80;;;0.43;;
40503;SDS011;42292;49.048;8.374;2022-07-01T12:01:33;5.80;;;1.00;;
40503;SDS011;42292;49.048;8.374;2022-07-01T12:04:01;2.08;;;0.73;;
40503;SDS011;42292;49.048;8.374;2022-07-01T12:06:28;2.47;;;0.70;;
40503;SDS011;42292;49.048;8.374;2022-07-01T12:08:54;1.70;;;0.60;;
40503;SDS011;42292;49.048;8.374;2022-07-01T12:11:21;1.00;;;0.60;;
40503;SDS011;42292;49.048;8.374;2022-07-01T12:13:48;1.00;;;0.70;;
40503;SDS011;42292;49.048;8.374;2022-07-01T12:16:15;2.58;;;0.90;;
40503;SDS011;42292;49.048;8.374;2022-07-01T12:18:54;2.17;;;0.73;;
40503;SDS011;42292;49.048;8.374;2022-07-01T12:21:20;2.67;;;0.80;;
40503;SDS011;42292;49.048;8.374;2022-07-01T12:24:05;2.08;;;0.80;;
40503;SDS011;42292;49.048;8.374;2022-07-01T12:26:34;1.35;;;0.90;;
40503;SDS011;42292;49.048;8.374;2022-07-01T12:29:11;2.20;;;0.60;;
40503;SDS011;42292;49.048;8.374;2022-07-01T12:31:39;2.10;;;0.90;;
40503;SDS011;42292;49.048;8.374;2022-07-01T12:34:06;1.70;;;0.73;;
40503;SDS011;42292;49.048;8.374;2022-07-01T12:36:34;1.77;;;0.70;;
40503;SDS011;42292;49.048;8.374;2022-07-01T12:39:04;2.17;;;0.75;;
40503;SDS011;42292;49.048;8.374;2022-07-01T12:41:34;1.27;;;0.70;;
40503;SDS011;42292;49.048;8.374;2022-07-01T12:44:46;1.25;;;0.80;;
40503;SDS011;42292;49.048;8.374;2022-07-01T12:46:48;1.95;;;0.85;;
40503;SDS011;42292;49.048;8.374;2022-07-01T12:49:20;1.70;;;0.65;;
40503;SDS011;42292;49.048;8.374;2022-07-01T12:51:54;2.17;;;0.63;;
40503;SDS011;42292;49.048;8.374;2022-07-01T12:56:56;3.70;;;0.75;;
40503;SDS011;42292;49.048;8.374;2022-07-01T12:59:22;2.20;;;0.93;;
40503;SDS011;42292;49.048;8.374;2022-07-01T13:01:47;2.00;;;0.70;;
40503;SDS011;42292;49.048;8.374;2022-07-01T13:04:15;1.37;;;0.80;;
40503;SDS011;42292;49.048;8.374;2022-07-01T13:06:49;1.80;;;0.70;;
40503;SDS011;42292;49.048;8.374;2022-07-01T13:09:17;1.48;;;0.65;;
40503;SDS011;42292;49.048;8.374;2022-07-01T13:11:43;2.28;;;0.70;;
40503;SDS011;42292;49.048;8.374;2022-07-01T13:14:11;2.30;;;0.70;;
40503;SDS011;42292;49.048;8.374;2022-07-01T13:16:37;2.17;;;0.80;;
40503;SDS011;42292;49.048;8.374;2022-07-01T13:19:05;2.23;;;0.60;;
40503;SDS011;42292;49.048;8.374;2022-07-01T13:21:31;2.15;;;1.00;;
40503;SDS011;42292;49.048;8.374;2022-07-01T13:23:56;1.60;;;0.85;;
40503;SDS011;42292;49.048;8.374;2022-07-01T13:26:24;2.38;;;0.60;;
40503;SDS011;42292;49.048;8.374;2022-07-01T13:28:50;1.80;;;0.70;;
40503;SDS011;42292;49.048;8.374;2022-07-01T13:31:15;2.63;;;0.63;;
40503;SDS011;42292;49.048;8.374;2022-07-01T13:33:41;1.27;;;0.57;;
40503;SDS011;42292;49.048;8.374;2022-07-01T13:36:06;1.85;;;0.70;;
40503;SDS011;42292;49.048;8.374;2022-07-01T13:38:32;1.77;;;0.52;;
40503;SDS011;42292;49.048;8.374;2022-07-01T13:40:58;1.98;;;0.73;;
40503;SDS011;42292;49.048;8.374;2022-07-01T13:43:23;1.50;;;0.80;;
40503;SDS011;42292;49.048;8.374;2022-07-01T13:45:49;13.90;;;2.00;;
40503;SDS011;42292;49.048;8.374;2022-07-01T13:48:17;2.80;;;0.80;;
40503;SDS011;42292;49.048;8.374;2022-07-01T13:50:45;2.72;;;0.90;;
40503;SDS011;42292;49.048;8.374;2022-07-01T13:53:13;2.80;;;0.80;;
40503;SDS011;42292;49.048;8.374;2022-07-01T13:55:38;2.10;;;0.80;;
40503;SDS011;42292;49.048;8.374;2022-07-01T13:58:04;1.23;;;0.70;;
40503;SDS011;42292;49.048;8.374;2022-07-01T14:00:32;1.30;;;0.73;;
40503;SDS011;42292;49.048;8.374;2022-07-01T14:03:02;2.00;;;0.83;;
40503;SDS011;42292;49.048;8.374;2022-07-01T14:05:30;1.30;;;0.80;;
40503;SDS011;42292;49.048;8.374;2022-07-01T14:07:55;1.70;;;0.77;;
40503;SDS011;42292;49.048;8.374;2022-07-01T14:10:23;2.28;;;0.60;;
40503;SDS011;42292;49.048;8.374;2022-07-01T14:12:49;2.10;;;0.73;;
40503;SDS011;42292;49.048;8.374;2022-07-01T14:15:14;1.35;;;0.60;;
40503;SDS011;42292;49.048;8.374;2022-07-01T14:17:42;1.17;;;0.63;;
40503;SDS011;42292;49.048;8.374;2022-07-01T14:20:09;1.90;;;0.60;;
40503;SDS011;42292;49.048;8.374;2022-07-01T14:22:38;1.25;;;0.60;;
40503;SDS011;42292;49.048;8.374;2022-07-01T14:25:06;1.55;;;0.60;;
40503;SDS011;42292;49.048;8.374;2022-07-01T14:27:34;2.75;;;0.80;;
40503;SDS011;42292;49.048;8.374;2022-07-01T14:30:00;1.40;;;0.60;;
40503;SDS011;42292;49.048;8.374;2022-07-01T14:32:25;2.20;;;0.70;;
40503;SDS011;42292;49.048;8.374;2022-07-01T14:34:54;2.05;;;0.68;;
40503;SDS011;42292;49.048;8.374;2022-07-01T14:37:26;1.80;;;0.70;;
40503;SDS011;42292;49.048;8.374;2022-07-01T14:39:52;1.90;;;0.60;;
40503;SDS011;42292;49.048;8.374;2022-07-01T14:42:21;1.27;;;0.53;;
40503;SDS011;42292;49.048;8.374;2022-07-01T14:44:47;1.40;;;0.70;;
40503;SDS011;42292;49.048;8.374;2022-07-01T14:47:15;1.65;;;0.52;;
40503;SDS011;42292;49.048;8.374;2022-07-01T14:49:41;2.25;;;0.68;;
40503;SDS011;42292;49.048;8.374;2022-07-01T14:52:10;1.80;;;0.65;;
40503;SDS011;42292;49.048;8.374;2022-07-01T14:54:39;2.00;;;0.57;;
40503;SDS011;42292;49.048;8.374;2022-07-01T14:57:05;1.43;;;0.60;;
40503;SDS011;42292;49.048;8.374;2022-07-01T14:59:33;1.10;;;0.60;;
40503;SDS011;42292;49.048;8.374;2022-07-01T15:01:59;1.13;;;0.50;;
40503;SDS011;42292;49.048;8.374;2022-07-01T15:04:30;2.40;;;0.70;;
40503;SDS011;42292;49.048;8.374;2022-07-01T15:06:58;1.92;;;0.73;;
40503;SDS011;42292;49.048;8.374;2022-07-01T15:09:27;1.80;;;0.60;;
40503;SDS011;42292;49.048;8.374;2022-07-01T15:11:55;1.58;;;0.80;;
40503;SDS011;42292;49.048;8.374;2022-07-01T15:14:20;1.40;;;0.60;;
40503;SDS011;42292;49.048;8.374;2022-07-01T15:16:46;1.60;;;0.70;;
40503;SDS011;42292;49.048;8.374;2022-07-01T15:19:11;2.30;;;0.60;;